»·PEaware :: FDX224 KONT-KSFO

FDX224 :: KONT-KSFO

FLIGHT INFORMATION

Flight Status: Arrived
Operator:
Federal Express
More flights by this operator :: More flights under this callsign
Pilot: Matteo S. (9898)
Aircraft: Unknown
(B77F)
More flights by this aircraft type
Origin: KONT Ontario Intl
United States
Destination: KSFO San Francisco Intl
United States
More flights between these airports :: More routes between these airports
Route: +POM8 AVE MAKRS SERFR SERFR2
File this flight plan on PilotEdge
Remarks:
Altitude:
(Current/Filed)
34,000ft
Speed:
(Current/Filed)
450kts
Departed: 25-Mar-16 09:49 AM
Arrived: 25-Mar-16 10:47 AM
Distance/Time
Traveled:
317nm/0:57
Distance/Time
To Go:
Arrived

Flight Plot

Page will automatically refresh every two minutes.


Map Options




Map Legend


Flown Route
Filed Route
Departure Airport
Arrival Airport
Navaid (VOR, NDB)
Fix

Horizontal Profiles

Position Reports

Time Latitude Longitude Heading Altitude Ground
Speed
25-Mar-16 09:09 34.059873 -117.621042 92 968ft 0kts
25-Mar-16 09:10 34.059873 -117.621042 92 968ft 0kts
25-Mar-16 09:11 34.059873 -117.621042 92 968ft 0kts
25-Mar-16 09:12 34.059873 -117.621042 92 968ft 0kts
25-Mar-16 09:13 34.059873 -117.621042 92 968ft 0kts
25-Mar-16 09:14 34.059873 -117.621042 92 968ft 0kts
25-Mar-16 09:15 34.059873 -117.621042 92 968ft 0kts
25-Mar-16 09:16 34.059873 -117.621042 92 968ft 0kts
25-Mar-16 09:17 34.059873 -117.621042 92 968ft 0kts
25-Mar-16 09:18 34.059873 -117.621042 92 968ft 0kts
25-Mar-16 09:19 34.059873 -117.621042 92 968ft 0kts
25-Mar-16 09:20 34.059873 -117.621042 92 968ft 0kts
25-Mar-16 09:21 34.059873 -117.621042 92 968ft 0kts
25-Mar-16 09:22 34.059873 -117.621042 92 968ft 0kts
25-Mar-16 09:23 34.059823 -117.621245 46 968ft 2kts
25-Mar-16 09:24 34.059690 -117.621932 170 968ft 1kts
25-Mar-16 09:25 34.059796 -117.621936 179 968ft 0kts
25-Mar-16 09:26 34.059796 -117.621936 179 968ft 0kts
25-Mar-16 09:27 34.059796 -117.621936 179 968ft 0kts
25-Mar-16 09:28 34.059796 -117.621936 179 968ft 0kts
25-Mar-16 09:29 34.059796 -117.621936 179 968ft 0kts
25-Mar-16 09:30 34.058896 -117.621913 178 964ft 10kts
25-Mar-16 09:31 34.057995 -117.618918 89 961ft 11kts
25-Mar-16 09:32 34.057993 -117.614701 89 957ft 12kts
25-Mar-16 09:33 34.057997 -117.609927 89 954ft 13kts
25-Mar-16 09:34 34.057995 -117.603744 89 948ft 23kts
25-Mar-16 09:35 34.058015 -117.596700 89 945ft 17kts
25-Mar-16 09:36 34.058020 -117.591902 89 945ft 12kts
25-Mar-16 09:37 34.058006 -117.587456 89 946ft 11kts
25-Mar-16 09:38 34.058010 -117.583029 89 948ft 10kts
25-Mar-16 09:39 34.057882 -117.582542 137 947ft 0kts
25-Mar-16 09:40 34.056899 -117.583221 267 943ft 9kts
25-Mar-16 09:41 34.056304 -117.626344 267 2819ft 209kts
25-Mar-16 09:42 34.054047 -117.708427 268 6921ft 271kts
25-Mar-16 09:43 34.080330 -117.788718 308 7101ft 283kts
25-Mar-16 09:44 34.131411 -117.864286 310 11025ft 336kts
25-Mar-16 09:45 34.191770 -117.952756 310 15380ft 348kts
25-Mar-16 09:46 34.254477 -118.044811 311 19168ft 363kts
25-Mar-16 09:47 34.319568 -118.140614 311 22508ft 379kts
25-Mar-16 09:48 34.387818 -118.241352 311 25677ft 397kts
25-Mar-16 09:49 34.459031 -118.346782 311 28801ft 413kts
25-Mar-16 09:50 34.532933 -118.456535 311 31726ft 430kts
25-Mar-16 09:51 34.608231 -118.568726 312 33995ft 421kts
25-Mar-16 09:52 34.681774 -118.678390 312 34077ft 421kts
25-Mar-16 09:53 34.755211 -118.787890 311 34145ft 418kts
25-Mar-16 09:54 34.831018 -118.882650 327 34135ft 417kts
25-Mar-16 09:55 34.927162 -118.962151 326 34132ft 416kts
25-Mar-16 09:56 35.022621 -119.040715 326 34122ft 414kts
25-Mar-16 09:57 35.117886 -119.119292 326 34132ft 415kts
25-Mar-16 09:58 35.213506 -119.198392 326 34130ft 416kts
25-Mar-16 09:59 35.309159 -119.277749 326 34129ft 417kts
25-Mar-16 10:00 35.405021 -119.357511 326 34131ft 421kts
25-Mar-16 10:01 35.487230 -119.426108 326 34123ft 427kts
25-Mar-16 10:02 35.564001 -119.535046 295 34128ft 438kts
25-Mar-16 10:03 35.592729 -119.681246 287 34131ft 443kts
25-Mar-16 10:04 35.620075 -119.829470 287 34136ft 445kts
25-Mar-16 10:05 35.646391 -119.977335 284 34138ft 444kts
25-Mar-16 10:06 35.661761 -120.128840 282 34143ft 446kts
25-Mar-16 10:07 35.676476 -120.280158 282 34142ft 445kts
25-Mar-16 10:08 35.712509 -120.421205 299 34142ft 430kts
25-Mar-16 10:09 35.762813 -120.553953 299 34139ft 428kts
25-Mar-16 10:10 35.813393 -120.686688 299 34144ft 428kts
25-Mar-16 10:11 35.863983 -120.819507 299 34142ft 428kts
25-Mar-16 10:12 35.914203 -120.952694 299 34140ft 428kts
25-Mar-16 10:13 35.964251 -121.086017 299 33832ft 428kts
25-Mar-16 10:14 36.013910 -121.218880 299 32346ft 418kts
25-Mar-16 10:15 36.063842 -121.344759 309 29686ft 397kts
25-Mar-16 10:16 36.145381 -121.424721 328 27456ft 368kts
25-Mar-16 10:17 36.228459 -121.489865 329 26026ft 349kts
25-Mar-16 10:18 36.309876 -121.553663 329 24572ft 343kts
25-Mar-16 10:19 36.389769 -121.616407 329 23092ft 337kts
25-Mar-16 10:20 36.468208 -121.677816 328 21460ft 332kts
25-Mar-16 10:21 36.545328 -121.738547 328 19565ft 321kts
25-Mar-16 10:22 36.620601 -121.798133 328 18481ft 318kts
25-Mar-16 10:23 36.694570 -121.856832 328 17168ft 313kts
25-Mar-16 10:24 36.771875 -121.901949 346 15796ft 307kts
25-Mar-16 10:25 36.854343 -121.925629 346 14427ft 302kts
25-Mar-16 10:26 36.935871 -121.948463 346 13096ft 298kts
25-Mar-16 10:27 37.014527 -121.977500 342 11780ft 294kts
25-Mar-16 10:28 37.092345 -122.007897 342 10461ft 291kts
25-Mar-16 10:29 37.167644 -122.037386 343 9204ft 275kts
25-Mar-16 10:30 37.237878 -122.064938 343 8028ft 253kts
25-Mar-16 10:31 37.304188 -122.090993 343 6939ft 249kts
25-Mar-16 10:32 37.370037 -122.116869 343 5836ft 247kts
25-Mar-16 10:33 37.435503 -122.142618 343 4697ft 245kts
25-Mar-16 10:34 37.499180 -122.162999 346 3475ft 217kts
25-Mar-16 10:35 37.544331 -122.198869 304 2798ft 190kts
25-Mar-16 10:36 37.567277 -122.252819 297 1877ft 148kts
25-Mar-16 10:37 37.585661 -122.296479 296 1114ft 139kts
25-Mar-16 10:38 37.603749 -122.339124 295 392ft 136kts
25-Mar-16 10:39 37.617675 -122.372600 298 24ft 37kts
25-Mar-16 10:40 37.620774 -122.377691 45 36ft 11kts
25-Mar-16 10:41 37.620923 -122.377497 45 35ft 0kts
25-Mar-16 10:42 37.622722 -122.375546 331 30ft 8kts
25-Mar-16 10:43 37.623925 -122.378273 297 33ft 10kts
25-Mar-16 10:44 37.625754 -122.382673 298 33ft 21kts
25-Mar-16 10:45 37.628272 -122.388576 297 27ft 16kts
25-Mar-16 10:46 37.630475 -122.392334 338 26ft 12kts
25-Mar-16 10:47 37.632857 -122.391717 344 24ft 10kts
25-Mar-16 10:48 37.634523 -122.388878 63 21ft 9kts
25-Mar-16 10:49 37.637021 -122.389274 329 20ft 9kts
25-Mar-16 10:50 37.638217 -122.389900 58 20ft 4kts
25-Mar-16 10:51 37.638354 -122.389629 57 20ft 0kts
25-Mar-16 10:52 37.638354 -122.389629 57 20ft 0kts

Navigation Log

Ident Type
Flight plan parsing failed, navigation log unavailable